sensor_id;sensor_type;location;lat;lon;timestamp;pressure;altitude;pressure_sealevel;temperature;humidity
26823;BME280;14852;51.910;8.878;2024-03-29T00:01:20;97711.53;;;10.40;52.06
26823;BME280;14852;51.910;8.878;2024-03-29T00:03:46;97713.16;;;10.41;51.59
26823;BME280;14852;51.910;8.878;2024-03-29T00:06:12;97709.63;;;10.42;51.53
26823;BME280;14852;51.910;8.878;2024-03-29T00:08:37;97711.28;;;10.43;51.67
26823;BME280;14852;51.910;8.878;2024-03-29T00:11:04;97706.91;;;10.44;51.96
26823;BME280;14852;51.910;8.878;2024-03-29T00:13:30;97711.03;;;10.46;51.42
26823;BME280;14852;51.910;8.878;2024-03-29T00:15:56;97708.66;;;10.43;51.65
26823;BME280;14852;51.910;8.878;2024-03-29T00:18:22;97701.84;;;10.42;51.95
26823;BME280;14852;51.910;8.878;2024-03-29T00:20:48;97702.41;;;10.46;51.81
26823;BME280;14852;51.910;8.878;2024-03-29T00:23:14;97704.06;;;10.47;51.78
26823;BME280;14852;51.910;8.878;2024-03-29T00:25:40;97712.66;;;10.47;51.59
26823;BME280;14852;51.910;8.878;2024-03-29T00:28:06;97709.38;;;10.45;51.46
26823;BME280;14852;51.910;8.878;2024-03-29T00:30:32;97719.06;;;10.43;51.78
26823;BME280;14852;51.910;8.878;2024-03-29T00:32:58;97715.50;;;10.44;51.76
26823;BME280;14852;51.910;8.878;2024-03-29T00:35:24;97716.47;;;10.43;51.20
26823;BME280;14852;51.910;8.878;2024-03-29T00:37:50;97716.09;;;10.48;51.52
26823;BME280;14852;51.910;8.878;2024-03-29T00:40:18;97711.44;;;10.51;51.38
26823;BME280;14852;51.910;8.878;2024-03-29T00:42:44;97703.78;;;10.50;51.14
26823;BME280;14852;51.910;8.878;2024-03-29T00:45:10;97718.41;;;10.51;50.94
26823;BME280;14852;51.910;8.878;2024-03-29T00:47:36;97701.88;;;10.52;50.99
26823;BME280;14852;51.910;8.878;2024-03-29T00:50:01;97708.59;;;10.55;51.41
26823;BME280;14852;51.910;8.878;2024-03-29T00:52:27;97711.88;;;10.57;50.99
26823;BME280;14852;51.910;8.878;2024-03-29T00:54:53;97703.00;;;10.59;50.63
26823;BME280;14852;51.910;8.878;2024-03-29T00:57:18;97699.31;;;10.62;50.59
26823;BME280;14852;51.910;8.878;2024-03-29T00:59:46;97699.47;;;10.60;50.59
26823;BME280;14852;51.910;8.878;2024-03-29T01:02:12;97695.34;;;10.58;50.63
26823;BME280;14852;51.910;8.878;2024-03-29T01:04:38;97688.38;;;10.58;50.47
26823;BME280;14852;51.910;8.878;2024-03-29T01:07:06;97694.41;;;10.59;50.58
26823;BME280;14852;51.910;8.878;2024-03-29T01:09:31;97682.25;;;10.59;50.50
26823;BME280;14852;51.910;8.878;2024-03-29T01:11:57;97682.38;;;10.58;50.89
26823;BME280;14852;51.910;8.878;2024-03-29T01:14:23;97679.06;;;10.56;50.73
26823;BME280;14852;51.910;8.878;2024-03-29T01:16:49;97676.72;;;10.52;50.57
26823;BME280;14852;51.910;8.878;2024-03-29T01:19:14;97674.53;;;10.48;50.61
26823;BME280;14852;51.910;8.878;2024-03-29T01:21:40;97683.00;;;10.50;50.63
26823;BME280;14852;51.910;8.878;2024-03-29T01:24:06;97681.22;;;10.50;50.47
26823;BME280;14852;51.910;8.878;2024-03-29T01:26:32;97699.41;;;10.50;50.61
26823;BME280;14852;51.910;8.878;2024-03-29T01:28:58;97705.41;;;10.51;50.46
26823;BME280;14852;51.910;8.878;2024-03-29T01:31:23;97708.84;;;10.51;50.63
26823;BME280;14852;51.910;8.878;2024-03-29T01:33:50;97716.75;;;10.50;50.26
26823;BME280;14852;51.910;8.878;2024-03-29T01:36:15;97698.72;;;10.48;50.52
26823;BME280;14852;51.910;8.878;2024-03-29T01:38:41;97707.19;;;10.50;50.41
26823;BME280;14852;51.910;8.878;2024-03-29T01:41:08;97707.06;;;10.52;50.18
26823;BME280;14852;51.910;8.878;2024-03-29T01:43:34;97713.91;;;10.53;50.23
26823;BME280;14852;51.910;8.878;2024-03-29T01:46:00;97700.81;;;10.55;50.10
26823;BME280;14852;51.910;8.878;2024-03-29T01:48:26;97697.13;;;10.57;50.27
26823;BME280;14852;51.910;8.878;2024-03-29T01:50:56;97696.06;;;10.60;50.19
26823;BME280;14852;51.910;8.878;2024-03-29T01:53:23;97699.47;;;10.60;50.08
26823;BME280;14852;51.910;8.878;2024-03-29T01:55:50;97696.59;;;10.63;49.70
26823;BME280;14852;51.910;8.878;2024-03-29T01:58:16;97701.41;;;10.68;49.60
26823;BME280;14852;51.910;8.878;2024-03-29T02:00:52;97715.78;;;10.72;49.66
26823;BME280;14852;51.910;8.878;2024-03-29T02:03:19;97704.69;;;10.70;49.85
26823;BME280;14852;51.910;8.878;2024-03-29T02:05:47;97703.75;;;10.71;49.62
26823;BME280;14852;51.910;8.878;2024-03-29T02:08:14;97701.16;;;10.71;49.65
26823;BME280;14852;51.910;8.878;2024-03-29T02:10:43;97710.44;;;10.73;49.72
26823;BME280;14852;51.910;8.878;2024-03-29T02:13:09;97708.66;;;10.74;49.72
26823;BME280;14852;51.910;8.878;2024-03-29T02:15:35;97707.72;;;10.75;49.36
26823;BME280;14852;51.910;8.878;2024-03-29T02:18:01;97700.75;;;10.75;49.40
26823;BME280;14852;51.910;8.878;2024-03-29T02:20:27;97696.25;;;10.77;49.55
26823;BME280;14852;51.910;8.878;2024-03-29T02:23:07;97695.84;;;10.82;49.46
26823;BME280;14852;51.910;8.878;2024-03-29T02:25:35;97687.13;;;10.83;49.45
26823;BME280;14852;51.910;8.878;2024-03-29T02:28:02;97686.81;;;10.86;49.46
26823;BME280;14852;51.910;8.878;2024-03-29T02:30:31;97684.09;;;10.87;49.50
26823;BME280;14852;51.910;8.878;2024-03-29T02:33:00;97693.41;;;10.90;49.18
26823;BME280;14852;51.910;8.878;2024-03-29T02:35:26;97682.88;;;10.92;49.13
26823;BME280;14852;51.910;8.878;2024-03-29T02:37:52;97681.53;;;10.97;49.30
26823;BME280;14852;51.910;8.878;2024-03-29T02:40:19;97685.63;;;11.00;49.23
26823;BME280;14852;51.910;8.878;2024-03-29T02:42:47;97680.19;;;11.03;48.96
26823;BME280;14852;51.910;8.878;2024-03-29T02:45:13;97665.28;;;11.05;49.37
26823;BME280;14852;51.910;8.878;2024-03-29T02:47:39;97660.47;;;11.10;48.85
26823;BME280;14852;51.910;8.878;2024-03-29T02:50:07;97662.81;;;11.13;48.87
26823;BME280;14852;51.910;8.878;2024-03-29T02:52:33;97662.56;;;11.16;49.12
26823;BME280;14852;51.910;8.878;2024-03-29T02:54:59;97657.09;;;11.19;48.91
26823;BME280;14852;51.910;8.878;2024-03-29T02:57:25;97653.50;;;11.20;48.85
26823;BME280;14852;51.910;8.878;2024-03-29T02:59:50;97657.63;;;11.22;48.87
26823;BME280;14852;51.910;8.878;2024-03-29T03:02:16;97651.47;;;11.23;48.52
26823;BME280;14852;51.910;8.878;2024-03-29T03:04:42;97661.06;;;11.23;48.78
26823;BME280;14852;51.910;8.878;2024-03-29T03:07:08;97657.75;;;11.21;49.00
26823;BME280;14852;51.910;8.878;2024-03-29T03:09:52;97657.75;;;11.21;48.95
26823;BME280;14852;51.910;8.878;2024-03-29T03:12:36;97654.22;;;11.22;48.82
26823;BME280;14852;51.910;8.878;2024-03-29T03:15:02;97656.53;;;11.25;49.05
26823;BME280;14852;51.910;8.878;2024-03-29T03:17:29;97664.47;;;11.23;48.77
26823;BME280;14852;51.910;8.878;2024-03-29T03:19:54;97654.78;;;11.25;48.70
26823;BME280;14852;51.910;8.878;2024-03-29T03:22:20;97646.72;;;11.29;48.66
26823;BME280;14852;51.910;8.878;2024-03-29T03:24:46;97644.81;;;11.31;48.78
26823;BME280;14852;51.910;8.878;2024-03-29T03:27:12;97647.09;;;11.34;48.62
26823;BME280;14852;51.910;8.878;2024-03-29T03:29:38;97644.78;;;11.40;48.56
26823;BME280;14852;51.910;8.878;2024-03-29T03:32:05;97654.06;;;11.43;48.19
26823;BME280;14852;51.910;8.878;2024-03-29T03:34:32;97649.56;;;11.45;48.39
26823;BME280;14852;51.910;8.878;2024-03-29T03:36:57;97651.78;;;11.49;48.21
26823;BME280;14852;51.910;8.878;2024-03-29T03:39:23;97652.31;;;11.53;48.08
26823;BME280;14852;51.910;8.878;2024-03-29T03:41:49;97658.75;;;11.58;48.04
26823;BME280;14852;51.910;8.878;2024-03-29T03:44:16;97654.91;;;11.63;47.97
26823;BME280;14852;51.910;8.878;2024-03-29T03:46:41;97658.72;;;11.68;47.55
26823;BME280;14852;51.910;8.878;2024-03-29T03:49:07;97654.91;;;11.72;47.84
26823;BME280;14852;51.910;8.878;2024-03-29T03:51:33;97662.34;;;11.77;47.70
26823;BME280;14852;51.910;8.878;2024-03-29T03:53:59;97652.19;;;11.83;47.87
26823;BME280;14852;51.910;8.878;2024-03-29T03:56:25;97664.25;;;11.84;47.45
26823;BME280;14852;51.910;8.878;2024-03-29T03:58:50;97662.31;;;11.86;47.59
26823;BME280;14852;51.910;8.878;2024-03-29T04:01:16;97667.22;;;11.89;47.53
26823;BME280;14852;51.910;8.878;2024-03-29T04:03:42;97691.06;;;11.94;47.48
26823;BME280;14852;51.910;8.878;2024-03-29T04:06:08;97694.22;;;11.98;47.49
26823;BME280;14852;51.910;8.878;2024-03-29T04:08:33;97690.66;;;11.99;47.66
26823;BME280;14852;51.910;8.878;2024-03-29T04:11:06;97700.91;;;12.01;47.65
26823;BME280;14852;51.910;8.878;2024-03-29T04:13:31;97703.38;;;12.02;47.46
26823;BME280;14852;51.910;8.878;2024-03-29T04:16:07;97706.53;;;12.06;47.91
26823;BME280;14852;51.910;8.878;2024-03-29T04:18:33;97698.84;;;12.04;48.02
26823;BME280;14852;51.910;8.878;2024-03-29T04:21:01;97705.00;;;12.03;48.02
26823;BME280;14852;51.910;8.878;2024-03-29T04:23:28;97709.41;;;12.03;47.98
26823;BME280;14852;51.910;8.878;2024-03-29T04:25:55;97715.69;;;12.00;47.93
26823;BME280;14852;51.910;8.878;2024-03-29T04:28:21;97725.59;;;11.96;48.09
26823;BME280;14852;51.910;8.878;2024-03-29T04:30:55;97727.50;;;11.94;48.46
26823;BME280;14852;51.910;8.878;2024-03-29T04:33:22;97730.38;;;11.91;48.51
26823;BME280;14852;51.910;8.878;2024-03-29T04:36:03;97727.25;;;11.88;48.68
26823;BME280;14852;51.910;8.878;2024-03-29T04:38:30;97730.50;;;11.80;48.71
26823;BME280;14852;51.910;8.878;2024-03-29T04:40:58;97720.91;;;11.71;49.22
26823;BME280;14852;51.910;8.878;2024-03-29T04:43:26;97737.06;;;11.65;49.71
26823;BME280;14852;51.910;8.878;2024-03-29T04:46:10;97733.09;;;11.61;49.85
26823;BME280;14852;51.910;8.878;2024-03-29T04:48:40;97739.09;;;11.52;50.06
26823;BME280;14852;51.910;8.878;2024-03-29T04:51:07;97746.59;;;11.45;50.42
26823;BME280;14852;51.910;8.878;2024-03-29T04:53:35;97756.47;;;11.42;50.61
26823;BME280;14852;51.910;8.878;2024-03-29T04:56:02;97768.09;;;11.38;50.45
26823;BME280;14852;51.910;8.878;2024-03-29T04:58:28;97754.94;;;11.30;51.02
26823;BME280;14852;51.910;8.878;2024-03-29T05:00:55;97742.47;;;11.23;51.26
26823;BME280;14852;51.910;8.878;2024-03-29T05:03:21;97740.94;;;11.21;51.08
26823;BME280;14852;51.910;8.878;2024-03-29T05:05:49;97735.09;;;11.19;51.55
26823;BME280;14852;51.910;8.878;2024-03-29T05:08:16;97731.78;;;11.17;51.43
26823;BME280;14852;51.910;8.878;2024-03-29T05:10:43;97724.38;;;11.12;51.70
26823;BME280;14852;51.910;8.878;2024-03-29T05:13:09;97728.06;;;11.10;51.99
26823;BME280;14852;51.910;8.878;2024-03-29T05:15:35;97748.16;;;11.08;51.68
26823;BME280;14852;51.910;8.878;2024-03-29T05:18:01;97728.59;;;11.04;52.17
26823;BME280;14852;51.910;8.878;2024-03-29T05:20:26;97729.81;;;11.00;52.20
26823;BME280;14852;51.910;8.878;2024-03-29T05:22:52;97721.88;;;10.92;52.54
26823;BME280;14852;51.910;8.878;2024-03-29T05:25:18;97715.16;;;10.89;52.99
26823;BME280;14852;51.910;8.878;2024-03-29T05:27:44;97717.03;;;10.87;52.80
26823;BME280;14852;51.910;8.878;2024-03-29T05:30:09;97713.22;;;10.81;52.97
26823;BME280;14852;51.910;8.878;2024-03-29T05:32:36;97715.25;;;10.78;53.16
26823;BME280;14852;51.910;8.878;2024-03-29T05:35:01;97715.13;;;10.79;53.17
26823;BME280;14852;51.910;8.878;2024-03-29T05:37:27;97717.72;;;10.79;53.05
26823;BME280;14852;51.910;8.878;2024-03-29T05:39:53;97715.13;;;10.79;53.34
26823;BME280;14852;51.910;8.878;2024-03-29T05:42:31;97712.25;;;10.82;52.89
26823;BME280;14852;51.910;8.878;2024-03-29T05:44:57;97727.84;;;10.82;53.29
26823;BME280;14852;51.910;8.878;2024-03-29T05:47:23;97727.84;;;10.82;53.42
26823;BME280;14852;51.910;8.878;2024-03-29T05:49:49;97719.94;;;10.84;53.56
26823;BME280;14852;51.910;8.878;2024-03-29T05:52:16;97720.88;;;10.83;53.85
26823;BME280;14852;51.910;8.878;2024-03-29T05:54:43;97709.22;;;10.77;53.82
26823;BME280;14852;51.910;8.878;2024-03-29T05:57:10;97711.25;;;10.74;54.04
26823;BME280;14852;51.910;8.878;2024-03-29T05:59:36;97712.38;;;10.71;54.16
26823;BME280;14852;51.910;8.878;2024-03-29T06:02:02;97713.56;;;10.67;54.70
26823;BME280;14852;51.910;8.878;2024-03-29T06:04:28;97704.13;;;10.66;54.94
26823;BME280;14852;51.910;8.878;2024-03-29T06:07:04;97697.03;;;10.68;54.61
26823;BME280;14852;51.910;8.878;2024-03-29T06:09:31;97702.47;;;10.65;55.04
26823;BME280;14852;51.910;8.878;2024-03-29T06:11:59;97691.16;;;10.66;54.52
26823;BME280;14852;51.910;8.878;2024-03-29T06:14:25;97685.81;;;10.68;54.86
26823;BME280;14852;51.910;8.878;2024-03-29T06:17:09;97664.34;;;10.66;54.69
26823;BME280;14852;51.910;8.878;2024-03-29T06:19:55;97665.16;;;10.66;54.90
26823;BME280;14852;51.910;8.878;2024-03-29T06:22:26;97655.16;;;10.62;55.22
26823;BME280;14852;51.910;8.878;2024-03-29T06:24:56;97669.38;;;10.58;55.50
26823;BME280;14852;51.910;8.878;2024-03-29T06:27:34;97662.78;;;10.53;55.35
26823;BME280;14852;51.910;8.878;2024-03-29T06:30:01;97665.09;;;10.47;55.93
26823;BME280;14852;51.910;8.878;2024-03-29T06:32:27;97674.09;;;10.43;56.04
26823;BME280;14852;51.910;8.878;2024-03-29T06:34:53;97666.72;;;10.38;55.89
26823;BME280;14852;51.910;8.878;2024-03-29T06:37:19;97647.97;;;10.35;56.20
26823;BME280;14852;51.910;8.878;2024-03-29T06:39:51;97644.09;;;10.29;56.34
26823;BME280;14852;51.910;8.878;2024-03-29T06:42:17;97645.34;;;10.25;56.41
26823;BME280;14852;51.910;8.878;2024-03-29T06:44:45;97621.53;;;10.20;56.47
26823;BME280;14852;51.910;8.878;2024-03-29T06:47:11;97630.50;;;10.16;56.56
26823;BME280;14852;51.910;8.878;2024-03-29T06:49:37;97651.53;;;10.13;56.67
26823;BME280;14852;51.910;8.878;2024-03-29T06:52:03;97637.72;;;10.12;56.63
26823;BME280;14852;51.910;8.878;2024-03-29T06:54:29;97640.19;;;10.14;56.48
26823;BME280;14852;51.910;8.878;2024-03-29T06:56:55;97629.81;;;10.14;56.79
26823;BME280;14852;51.910;8.878;2024-03-29T06:59:22;97638.56;;;10.13;56.56
26823;BME280;14852;51.910;8.878;2024-03-29T07:01:48;97630.66;;;10.14;56.62
26823;BME280;14852;51.910;8.878;2024-03-29T07:04:24;97633.81;;;10.18;56.97
26823;BME280;14852;51.910;8.878;2024-03-29T07:06:54;97629.31;;;10.20;56.81
26823;BME280;14852;51.910;8.878;2024-03-29T07:09:21;97624.72;;;10.24;56.81
26823;BME280;14852;51.910;8.878;2024-03-29T07:11:49;97627.06;;;10.27;57.01
26823;BME280;14852;51.910;8.878;2024-03-29T07:14:17;97627.59;;;10.30;57.26
26823;BME280;14852;51.910;8.878;2024-03-29T07:16:43;97622.97;;;10.34;57.75
26823;BME280;14852;51.910;8.878;2024-03-29T07:19:10;97625.72;;;10.42;57.43
26823;BME280;14852;51.910;8.878;2024-03-29T07:21:47;97625.75;;;10.51;57.48
26823;BME280;14852;51.910;8.878;2024-03-29T07:24:13;97628.53;;;10.60;57.55
26823;BME280;14852;51.910;8.878;2024-03-29T07:26:39;97628.56;;;10.69;57.10
26823;BME280;14852;51.910;8.878;2024-03-29T07:29:06;97626.94;;;10.78;57.41
26823;BME280;14852;51.910;8.878;2024-03-29T07:31:33;97620.09;;;10.86;57.47
26823;BME280;14852;51.910;8.878;2024-03-29T07:33:59;97625.84;;;10.90;57.87
26823;BME280;14852;51.910;8.878;2024-03-29T07:36:25;97604.38;;;10.98;57.81
26823;BME280;14852;51.910;8.878;2024-03-29T07:38:52;97603.03;;;11.03;57.94
26823;BME280;14852;51.910;8.878;2024-03-29T07:41:18;97627.53;;;11.10;58.24
26823;BME280;14852;51.910;8.878;2024-03-29T07:44:02;97610.97;;;11.21;57.80
26823;BME280;14852;51.910;8.878;2024-03-29T07:46:36;97605.13;;;11.29;57.67
26823;BME280;14852;51.910;8.878;2024-03-29T07:49:05;97616.72;;;11.34;58.07
26823;BME280;14852;51.910;8.878;2024-03-29T07:51:31;97620.28;;;11.43;57.77
26823;BME280;14852;51.910;8.878;2024-03-29T07:53:57;97618.22;;;11.46;58.11
26823;BME280;14852;51.910;8.878;2024-03-29T07:56:23;97614.28;;;11.52;57.90
26823;BME280;14852;51.910;8.878;2024-03-29T07:58:54;97613.56;;;11.59;57.77
26823;BME280;14852;51.910;8.878;2024-03-29T08:01:21;97613.81;;;11.66;57.67
26823;BME280;14852;51.910;8.878;2024-03-29T08:03:47;97611.38;;;11.74;58.31
26823;BME280;14852;51.910;8.878;2024-03-29T08:06:13;97618.63;;;11.80;58.06
26823;BME280;14852;51.910;8.878;2024-03-29T08:08:39;97622.34;;;11.87;57.97
26823;BME280;14852;51.910;8.878;2024-03-29T08:11:04;97626.25;;;12.11;57.53
26823;BME280;14852;51.910;8.878;2024-03-29T08:13:30;97620.91;;;12.40;57.07
26823;BME280;14852;51.910;8.878;2024-03-29T08:15:57;97637.88;;;12.53;57.15
26823;BME280;14852;51.910;8.878;2024-03-29T08:18:24;97658.25;;;12.58;56.72
26823;BME280;14852;51.910;8.878;2024-03-29T08:20:50;97648.81;;;12.57;56.97
26823;BME280;14852;51.910;8.878;2024-03-29T08:23:16;97658.69;;;12.53;57.20
26823;BME280;14852;51.910;8.878;2024-03-29T08:25:42;97645.28;;;12.48;57.15
26823;BME280;14852;51.910;8.878;2024-03-29T08:28:08;97662.41;;;12.51;57.57
26823;BME280;14852;51.910;8.878;2024-03-29T08:30:36;97663.38;;;12.50;57.02
26823;BME280;14852;51.910;8.878;2024-03-29T08:33:03;97660.75;;;12.50;57.56
26823;BME280;14852;51.910;8.878;2024-03-29T08:35:33;97669.69;;;12.47;57.46
26823;BME280;14852;51.910;8.878;2024-03-29T08:38:00;97681.75;;;12.48;57.32
26823;BME280;14852;51.910;8.878;2024-03-29T08:40:28;97670.34;;;12.49;57.41
26823;BME280;14852;51.910;8.878;2024-03-29T08:42:56;97672.28;;;12.57;57.60
26823;BME280;14852;51.910;8.878;2024-03-29T08:45:22;97668.13;;;12.64;57.15
26823;BME280;14852;51.910;8.878;2024-03-29T08:47:48;97663.13;;;12.70;56.77
26823;BME280;14852;51.910;8.878;2024-03-29T08:50:14;97656.69;;;12.75;56.71
26823;BME280;14852;51.910;8.878;2024-03-29T08:52:40;97663.25;;;12.79;56.69
26823;BME280;14852;51.910;8.878;2024-03-29T08:55:07;97666.38;;;12.82;56.64
26823;BME280;14852;51.910;8.878;2024-03-29T08:57:33;97662.09;;;12.91;56.49
26823;BME280;14852;51.910;8.878;2024-03-29T08:59:59;97661.00;;;13.11;56.36
26823;BME280;14852;51.910;8.878;2024-03-29T09:02:25;97645.53;;;13.27;56.04
26823;BME280;14852;51.910;8.878;2024-03-29T09:04:51;97657.25;;;13.41;55.76
26823;BME280;14852;51.910;8.878;2024-03-29T09:07:17;97651.50;;;13.55;55.39
26823;BME280;14852;51.910;8.878;2024-03-29T09:09:43;97641.94;;;13.82;55.25
26823;BME280;14852;51.910;8.878;2024-03-29T09:12:09;97643.19;;;13.95;55.04
26823;BME280;14852;51.910;8.878;2024-03-29T09:14:35;97634.34;;;14.22;54.51
26823;BME280;14852;51.910;8.878;2024-03-29T09:17:01;97641.41;;;14.56;54.29
26823;BME280;14852;51.910;8.878;2024-03-29T09:19:28;97632.81;;;14.63;53.57
26823;BME280;14852;51.910;8.878;2024-03-29T09:21:56;97638.41;;;14.76;53.48
26823;BME280;14852;51.910;8.878;2024-03-29T09:24:21;97639.09;;;14.87;53.94
26823;BME280;14852;51.910;8.878;2024-03-29T09:26:51;97634.72;;;14.95;53.74
26823;BME280;14852;51.910;8.878;2024-03-29T09:29:17;97635.19;;;14.91;53.79
26823;BME280;14852;51.910;8.878;2024-03-29T09:31:45;97635.03;;;14.92;54.26
26823;BME280;14852;51.910;8.878;2024-03-29T09:34:11;97632.63;;;15.07;54.13
26823;BME280;14852;51.910;8.878;2024-03-29T09:36:37;97637.03;;;15.14;53.86
26823;BME280;14852;51.910;8.878;2024-03-29T09:39:03;97629.22;;;15.23;53.80
26823;BME280;14852;51.910;8.878;2024-03-29T09:41:32;97642.78;;;15.26;53.69
26823;BME280;14852;51.910;8.878;2024-03-29T09:44:03;97630.72;;;15.33;53.87
26823;BME280;14852;51.910;8.878;2024-03-29T09:46:33;97633.97;;;15.35;53.32
26823;BME280;14852;51.910;8.878;2024-03-29T09:48:59;97655.41;;;15.31;53.88
26823;BME280;14852;51.910;8.878;2024-03-29T09:51:27;97639.84;;;15.29;53.82
26823;BME280;14852;51.910;8.878;2024-03-29T09:53:53;97647.22;;;15.42;53.84
26823;BME280;14852;51.910;8.878;2024-03-29T09:56:20;97649.09;;;15.57;53.73
26823;BME280;14852;51.910;8.878;2024-03-29T09:58:47;97649.72;;;15.60;52.89
26823;BME280;14852;51.910;8.878;2024-03-29T10:01:12;97652.00;;;15.71;53.00
26823;BME280;14852;51.910;8.878;2024-03-29T10:03:48;97654.78;;;15.93;52.66
26823;BME280;14852;51.910;8.878;2024-03-29T10:06:14;97656.41;;;16.19;52.08
26823;BME280;14852;51.910;8.878;2024-03-29T10:08:40;97648.22;;;16.22;51.63
26823;BME280;14852;51.910;8.878;2024-03-29T10:11:06;97645.09;;;16.18;51.57
26823;BME280;14852;51.910;8.878;2024-03-29T10:13:32;97641.16;;;16.22;52.01
26823;BME280;14852;51.910;8.878;2024-03-29T10:16:00;97650.97;;;16.28;52.14
26823;BME280;14852;51.910;8.878;2024-03-29T10:18:28;97649.81;;;16.31;51.96
26823;BME280;14852;51.910;8.878;2024-03-29T10:21:14;97653.94;;;16.25;52.05
26823;BME280;14852;51.910;8.878;2024-03-29T10:23:40;97643.28;;;16.19;51.58
26823;BME280;14852;51.910;8.878;2024-03-29T10:26:06;97644.47;;;16.08;51.89
26823;BME280;14852;51.910;8.878;2024-03-29T10:28:36;97653.97;;;16.01;51.82
26823;BME280;14852;51.910;8.878;2024-03-29T10:31:04;97652.81;;;15.96;52.13
26823;BME280;14852;51.910;8.878;2024-03-29T10:33:31;97650.53;;;16.01;52.45
26823;BME280;14852;51.910;8.878;2024-03-29T10:36:02;97664.28;;;15.94;52.52
26823;BME280;14852;51.910;8.878;2024-03-29T10:38:30;97662.34;;;15.88;52.29
26823;BME280;14852;51.910;8.878;2024-03-29T10:40:56;97659.41;;;15.91;52.27
26823;BME280;14852;51.910;8.878;2024-03-29T10:43:23;97672.16;;;15.86;52.26
26823;BME280;14852;51.910;8.878;2024-03-29T10:45:50;97673.31;;;15.92;52.42
26823;BME280;14852;51.910;8.878;2024-03-29T10:48:21;97671.34;;;15.86;52.55
26823;BME280;14852;51.910;8.878;2024-03-29T10:50:49;97679.84;;;15.80;52.20
26823;BME280;14852;51.910;8.878;2024-03-29T10:53:17;97685.06;;;15.72;52.54
26823;BME280;14852;51.910;8.878;2024-03-29T10:55:43;97683.78;;;15.76;52.42
26823;BME280;14852;51.910;8.878;2024-03-29T10:58:11;97701.94;;;15.85;52.27
26823;BME280;14852;51.910;8.878;2024-03-29T11:00:47;97694.56;;;15.97;52.65
26823;BME280;14852;51.910;8.878;2024-03-29T11:03:19;97693.28;;;16.01;52.20
26823;BME280;14852;51.910;8.878;2024-03-29T11:05:50;97694.91;;;16.10;51.74
26823;BME280;14852;51.910;8.878;2024-03-29T11:08:27;97677.53;;;16.09;52.08
26823;BME280;14852;51.910;8.878;2024-03-29T11:10:58;97677.38;;;16.11;51.83
26823;BME280;14852;51.910;8.878;2024-03-29T11:13:49;97688.16;;;16.24;51.64
26823;BME280;14852;51.910;8.878;2024-03-29T11:16:17;97686.34;;;16.33;51.58
26823;BME280;14852;51.910;8.878;2024-03-29T11:18:45;97692.75;;;16.38;51.68
26823;BME280;14852;51.910;8.878;2024-03-29T11:21:14;97702.22;;;16.39;51.35
26823;BME280;14852;51.910;8.878;2024-03-29T11:23:48;97701.75;;;16.36;51.74
26823;BME280;14852;51.910;8.878;2024-03-29T11:26:15;97700.59;;;16.38;51.46
26823;BME280;14852;51.910;8.878;2024-03-29T11:28:52;97691.59;;;16.33;51.51
26823;BME280;14852;51.910;8.878;2024-03-29T11:31:22;97698.31;;;16.35;51.37
26823;BME280;14852;51.910;8.878;2024-03-29T11:33:48;97701.09;;;16.34;51.55
26823;BME280;14852;51.910;8.878;2024-03-29T11:36:29;97682.75;;;16.34;51.67
26823;BME280;14852;51.910;8.878;2024-03-29T11:38:57;97684.06;;;16.38;51.50
26823;BME280;14852;51.910;8.878;2024-03-29T11:41:25;97678.13;;;16.44;51.22
26823;BME280;14852;51.910;8.878;2024-03-29T11:43:53;97679.75;;;16.53;51.20
26823;BME280;14852;51.910;8.878;2024-03-29T11:46:20;97677.28;;;16.68;51.51
26823;BME280;14852;51.910;8.878;2024-03-29T11:48:49;97678.66;;;16.86;51.38
26823;BME280;14852;51.910;8.878;2024-03-29T11:51:22;97680.53;;;17.09;50.49
26823;BME280;14852;51.910;8.878;2024-03-29T11:53:50;97691.63;;;17.27;50.58
26823;BME280;14852;51.910;8.878;2024-03-29T11:56:17;97694.59;;;17.47;50.08
26823;BME280;14852;51.910;8.878;2024-03-29T11:58:43;97684.50;;;17.35;49.87
26823;BME280;14852;51.910;8.878;2024-03-29T12:01:09;97693.25;;;17.28;49.96
26823;BME280;14852;51.910;8.878;2024-03-29T12:03:38;97670.91;;;17.32;50.03
26823;BME280;14852;51.910;8.878;2024-03-29T12:06:05;97674.50;;;17.31;50.32
26823;BME280;14852;51.910;8.878;2024-03-29T12:08:34;97684.22;;;17.30;49.45
26823;BME280;14852;51.910;8.878;2024-03-29T12:11:02;97688.28;;;17.33;49.61
26823;BME280;14852;51.910;8.878;2024-03-29T12:13:28;97701.38;;;17.41;50.00
26823;BME280;14852;51.910;8.878;2024-03-29T12:15:55;97700.72;;;17.39;49.32
26823;BME280;14852;51.910;8.878;2024-03-29T12:18:23;97706.31;;;17.36;49.84
26823;BME280;14852;51.910;8.878;2024-03-29T12:20:50;97713.53;;;17.34;49.98
26823;BME280;14852;51.910;8.878;2024-03-29T12:23:18;97716.06;;;17.27;49.88
26823;BME280;14852;51.910;8.878;2024-03-29T12:25:45;97735.38;;;17.34;49.68
26823;BME280;14852;51.910;8.878;2024-03-29T12:28:13;97734.94;;;17.23;49.42
26823;BME280;14852;51.910;8.878;2024-03-29T12:30:49;97734.53;;;17.03;49.57
26823;BME280;14852;51.910;8.878;2024-03-29T12:33:17;97731.81;;;16.80;49.67
26823;BME280;14852;51.910;8.878;2024-03-29T12:35:54;97722.19;;;16.64;50.06
26823;BME280;14852;51.910;8.878;2024-03-29T12:38:22;97711.69;;;16.56;50.14
26823;BME280;14852;51.910;8.878;2024-03-29T12:40:49;97718.56;;;16.57;50.33
26823;BME280;14852;51.910;8.878;2024-03-29T12:43:23;97731.69;;;16.57;50.00
26823;BME280;14852;51.910;8.878;2024-03-29T12:45:49;97725.28;;;16.52;50.17
26823;BME280;14852;51.910;8.878;2024-03-29T12:48:22;97751.84;;;16.57;50.03
26823;BME280;14852;51.910;8.878;2024-03-29T12:50:51;97775.78;;;16.62;50.80
26823;BME280;14852;51.910;8.878;2024-03-29T12:53:17;97768.72;;;16.71;50.13
26823;BME280;14852;51.910;8.878;2024-03-29T12:55:44;97775.94;;;16.69;50.11
26823;BME280;14852;51.910;8.878;2024-03-29T12:58:15;97780.19;;;16.78;50.42
26823;BME280;14852;51.910;8.878;2024-03-29T13:00:43;97771.13;;;16.88;50.35
26823;BME280;14852;51.910;8.878;2024-03-29T13:03:09;97774.41;;;16.90;50.18